Time;durP1;ratioP1;P1;durP2;ratioP2;P2;SDS_P1;SDS_P2;PMS_P1;PMS_P2;Temp;Humidity;BMP_temperature;BMP_pressure;BME280_temperature;BME280_humidity;BME280_pressure;Samples;Min_cycle;Max_cycle;Signal;HPM_P1;HPM_P2
2022/05/20 00:00:58;;;;;;;6.90;3.65;;;;;;;;;;2097963;28;20048;-59
2022/05/20 00:01:59;;;;;;;4.90;2.40;;;;;;;;;;2098107;28;20116;-59
2022/05/20 00:03:00;;;;;;;8.63;3.53;;;;;;;;;;2097977;28;20124;-59
2022/05/20 00:04:01;;;;;;;7.82;3.22;;;;;;;;;;2098131;28;20044;-59
2022/05/20 00:05:02;;;;;;;5.45;3.08;;;;;;;;;;2098114;28;20440;-58
2022/05/20 00:06:04;;;;;;;5.80;2.97;;;;;;;;;;2098059;28;20501;-58
2022/05/20 00:07:05;;;;;;;6.85;3.25;;;;;;;;;;2098030;28;20055;-59
2022/05/20 00:08:06;;;;;;;4.82;2.85;;;;;;;;;;2098154;28;20079;-59
2022/05/20 00:09:07;;;;;;;3.83;2.55;;;;;;;;;;2098062;28;20113;-59
2022/05/20 00:10:09;;;;;;;6.10;2.53;;;;;;;;;;2097947;28;20485;-58
2022/05/20 00:11:10;;;;;;;6.95;3.35;;;;;;;;;;2098063;28;20178;-59
2022/05/20 00:12:11;;;;;;;7.53;3.47;;;;;;;;;;2097937;28;20174;-59
2022/05/20 00:13:12;;;;;;;4.82;3.28;;;;;;;;;;2097805;28;20051;-59
2022/05/20 00:14:13;;;;;;;5.03;2.83;;;;;;;;;;2097803;28;20040;-59
2022/05/20 00:15:16;;;;;;;6.88;2.88;;;;;;;;;;2097634;28;20289;-59
2022/05/20 00:16:18;;;;;;;6.30;3.40;;;;;;;;;;2097933;28;20110;-59
2022/05/20 00:17:19;;;;;;;5.22;3.15;;;;;;;;;;2097673;28;20414;-59
2022/05/20 00:18:20;;;;;;;6.23;2.87;;;;;;;;;;2097980;28;20044;-59
2022/05/20 00:19:21;;;;;;;5.25;3.08;;;;;;;;;;2106149;28;20119;-59
2022/05/20 00:20:24;;;;;;;6.20;2.93;;;;;;;;;;2097896;28;20049;-59
2022/05/20 00:21:25;;;;;;;5.10;3.22;;;;;;;;;;2097235;28;20285;-59
2022/05/20 00:22:26;;;;;;;6.07;3.33;;;;;;;;;;2097388;28;20588;-59
2022/05/20 00:23:27;;;;;;;5.05;2.63;;;;;;;;;;2097984;28;20131;-59
2022/05/20 00:24:28;;;;;;;6.15;3.53;;;;;;;;;;2097649;28;20051;-59
2022/05/20 00:25:47;;;;;;;5.85;3.20;;;;;;;;;;2097804;28;20055;-59
2022/05/20 00:26:50;;;;;;;6.07;3.45;;;;;;;;;;2098004;28;20055;-59
2022/05/20 00:27:51;;;;;;;6.47;3.45;;;;;;;;;;2097903;28;20143;-59
2022/05/20 00:28:53;;;;;;;5.30;3.20;;;;;;;;;;2097879;28;20051;-59
2022/05/20 00:29:56;;;;;;;4.60;2.95;;;;;;;;;;2097934;28;20052;-59
2022/05/20 00:31:00;;;;;;;5.97;3.33;;;;;;;;;;2097478;28;20040;-59
2022/05/20 00:32:01;;;;;;;6.05;3.28;;;;;;;;;;2097881;28;20053;-59
2022/05/20 00:33:03;;;;;;;4.82;3.05;;;;;;;;;;2097939;28;20051;-58
2022/05/20 00:34:04;;;;;;;4.47;3.08;;;;;;;;;;2097844;28;20049;-58
2022/05/20 00:35:05;;;;;;;7.53;3.57;;;;;;;;;;2101733;28;20040;-58
2022/05/20 00:36:07;;;;;;;5.90;2.92;;;;;;;;;;2106280;28;20123;-59
2022/05/20 00:37:08;;;;;;;6.38;2.78;;;;;;;;;;2106332;28;20102;-47
2022/05/20 00:38:09;;;;;;;4.28;2.70;;;;;;;;;;2106229;28;20044;-47
2022/05/20 00:39:10;;;;;;;4.88;2.70;;;;;;;;;;2106049;28;20130;-46
2022/05/20 00:40:13;;;;;;;4.53;2.17;;;;;;;;;;2103768;28;20051;-46
2022/05/20 00:41:15;;;;;;;4.45;2.80;;;;;;;;;;2097614;28;20122;-47
2022/05/20 00:42:16;;;;;;;4.80;2.70;;;;;;;;;;2097763;28;20383;-47
2022/05/20 00:43:22;;;;;;;4.28;2.63;;;;;;;;;;2097718;28;20095;-46
2022/05/20 00:44:23;;;;;;;3.67;2.00;;;;;;;;;;2097832;28;20086;-48
2022/05/20 00:45:25;;;;;;;5.90;2.10;;;;;;;;;;2097802;28;20076;-46
2022/05/20 00:46:27;;;;;;;4.07;2.25;;;;;;;;;;2097761;28;20044;-47
2022/05/20 00:47:28;;;;;;;4.78;2.58;;;;;;;;;;2097925;28;20055;-49
2022/05/20 00:48:31;;;;;;;4.72;2.60;;;;;;;;;;2097926;28;20128;-46
2022/05/20 00:49:32;;;;;;;4.57;2.22;;;;;;;;;;2104502;28;20048;-47
2022/05/20 00:50:34;;;;;;;5.38;2.20;;;;;;;;;;2106078;28;20146;-47
2022/05/20 00:51:38;;;;;;;3.60;2.15;;;;;;;;;;2106080;28;20043;-48
2022/05/20 00:52:42;;;;;;;5.15;2.13;;;;;;;;;;2106068;28;20123;-47
2022/05/20 00:53:45;;;;;;;4.57;2.50;;;;;;;;;;2106244;28;20054;-47
2022/05/20 00:54:48;;;;;;;4.38;2.20;;;;;;;;;;2106052;28;20051;-47
2022/05/20 00:55:49;;;;;;;3.58;1.65;;;;;;;;;;2106163;28;20131;-47
2022/05/20 00:56:53;;;;;;;3.30;2.10;;;;;;;;;;2106174;28;20125;-47
2022/05/20 00:57:56;;;;;;;3.72;1.80;;;;;;;;;;2106022;28;20128;-46
2022/05/20 00:58:58;;;;;;;4.28;2.13;;;;;;;;;;2106191;28;20047;-46
2022/05/20 01:00:02;;;;;;;3.72;1.80;;;;;;;;;;2106053;28;20610;-47
2022/05/20 01:01:04;;;;;;;3.67;2.00;;;;;;;;;;2106017;28;20195;-46
2022/05/20 01:02:08;;;;;;;5.75;1.83;;;;;;;;;;2106147;28;20044;-46
2022/05/20 01:03:10;;;;;;;3.20;2.00;;;;;;;;;;2106185;28;20048;-46
2022/05/20 01:04:12;;;;;;;3.03;1.50;;;;;;;;;;2106022;28;20485;-46
2022/05/20 01:05:17;;;;;;;3.88;1.95;;;;;;;;;;2102661;28;20044;-48
2022/05/20 01:06:18;;;;;;;5.35;2.03;;;;;;;;;;2097519;28;20049;-47
2022/05/20 01:07:19;;;;;;;3.72;1.75;;;;;;;;;;2097881;28;20139;-59
2022/05/20 01:08:22;;;;;;;4.60;1.92;;;;;;;;;;2097694;28;20138;-59
2022/05/20 01:09:23;;;;;;;5.35;2.13;;;;;;;;;;2097615;28;20079;-59
2022/05/20 01:10:24;;;;;;;3.10;1.60;;;;;;;;;;2097735;28;20076;-59
2022/05/20 01:11:26;;;;;;;3.60;1.80;;;;;;;;;;2097521;28;20136;-59
2022/05/20 01:12:27;;;;;;;;;;;;;;;;;;2098112;28;20060;-59
2022/05/20 01:13:29;;;;;;;2.15;1.52;;;;;;;;;;2097722;28;19966;-59
2022/05/20 01:14:30;;;;;;;2.58;1.50;;;;;;;;;;2097420;28;20114;-59
2022/05/20 01:15:32;;;;;;;3.67;2.37;;;;;;;;;;2097531;28;20127;-59
2022/05/20 01:16:33;;;;;;;;;;;;;;;;;;2098159;28;20055;-58
2022/05/20 01:17:35;;;;;;;3.50;1.65;;;;;;;;;;2097173;28;19924;-59
2022/05/20 01:18:37;;;;;;;4.38;1.83;;;;;;;;;;2099349;28;20052;-59
2022/05/20 01:19:40;;;;;;;6.03;2.10;;;;;;;;;;2105806;28;20058;-59
2022/05/20 01:20:43;;;;;;;3.65;2.03;;;;;;;;;;2105974;28;20130;-59
2022/05/20 01:21:44;;;;;;;5.22;2.00;;;;;;;;;;2105859;28;20146;-59
2022/05/20 01:22:45;;;;;;;;;;;;;;;;;;2106429;28;20047;-59
2022/05/20 01:23:47;;;;;;;3.88;2.00;;;;;;;;;;2101287;28;19986;-59
2022/05/20 01:24:48;;;;;;;;;;;;;;;;;;2097996;28;20508;-59
2022/05/20 01:25:50;;;;;;;3.58;1.95;;;;;;;;;;2097261;28;19974;-59
2022/05/20 01:26:51;;;;;;;3.65;1.65;;;;;;;;;;2097699;28;20104;-59
2022/05/20 01:27:53;;;;;;;2.30;1.50;;;;;;;;;;2097502;28;20056;-59
2022/05/20 01:28:54;;;;;;;3.08;1.80;;;;;;;;;;2097411;28;20072;-58
2022/05/20 01:29:55;;;;;;;3.20;1.50;;;;;;;;;;2097496;28;20040;-59
2022/05/20 01:30:58;;;;;;;6.43;1.70;;;;;;;;;;2097841;28;20447;-59
2022/05/20 01:31:59;;;;;;;3.08;1.70;;;;;;;;;;2105080;28;20581;-59
2022/05/20 01:33:02;;;;;;;3.40;1.67;;;;;;;;;;2105842;28;20040;-59
2022/05/20 01:34:02;;;;;;;3.83;1.70;;;;;;;;;;2105841;28;20156;-59
2022/05/20 01:35:05;;;;;;;5.30;2.27;;;;;;;;;;2105953;28;20165;-59
2022/05/20 01:36:07;;;;;;;3.88;1.63;;;;;;;;;;2105991;28;20127;-59
2022/05/20 01:37:08;;;;;;;3.35;1.70;;;;;;;;;;2105737;28;20103;-58
2022/05/20 01:38:10;;;;;;;2.83;1.70;;;;;;;;;;2105836;28;20047;-58
2022/05/20 01:39:12;;;;;;;2.50;1.67;;;;;;;;;;2099483;28;20041;-59
2022/05/20 01:40:13;;;;;;;2.38;1.50;;;;;;;;;;2097384;28;20559;-59
2022/05/20 01:41:18;;;;;;;4.57;1.67;;;;;;;;;;2097053;28;20132;-58
2022/05/20 01:42:22;;;;;;;3.03;1.60;;;;;;;;;;2096738;28;20044;-59
2022/05/20 01:43:31;;;;;;;3.63;1.88;;;;;;;;;;2096775;28;20052;-59
2022/05/20 01:44:35;;;;;;;4.10;1.80;;;;;;;;;;2096705;28;20210;-59
2022/05/20 01:45:39;;;;;;;2.67;1.73;;;;;;;;;;2101944;28;20130;-59
2022/05/20 01:46:42;;;;;;;3.50;1.70;;;;;;;;;;2104972;28;20044;-59
2022/05/20 01:47:47;;;;;;;2.55;1.40;;;;;;;;;;2105477;28;20079;-59
2022/05/20 01:48:53;;;;;;;3.13;1.50;;;;;;;;;;2105769;28;20435;-59
2022/05/20 01:49:57;;;;;;;2.75;1.52;;;;;;;;;;2105915;28;20048;-59
2022/05/20 01:50:58;;;;;;;3.15;1.60;;;;;;;;;;2106002;28;20154;-47
2022/05/20 01:52:01;;;;;;;4.33;2.10;;;;;;;;;;2099871;28;20048;-47
2022/05/20 01:53:04;;;;;;;3.53;1.80;;;;;;;;;;2097270;28;20049;-47
2022/05/20 01:54:08;;;;;;;4.05;1.88;;;;;;;;;;2097216;28;20454;-46
2022/05/20 01:55:14;;;;;;;3.33;1.65;;;;;;;;;;2097368;28;20145;-49
2022/05/20 01:56:18;;;;;;;2.78;1.70;;;;;;;;;;2097197;28;20090;-47
2022/05/20 01:57:22;;;;;;;3.05;1.85;;;;;;;;;;2097325;28;20508;-47
2022/05/20 01:58:25;;;;;;;4.97;2.60;;;;;;;;;;2097583;28;20330;-47
2022/05/20 01:59:29;;;;;;;3.83;2.25;;;;;;;;;;2097098;28;20050;-47
2022/05/20 02:00:32;;;;;;;3.50;2.03;;;;;;;;;;2097225;28;20409;-47
2022/05/20 02:01:35;;;;;;;4.25;2.20;;;;;;;;;;2097247;28;20056;-47
2022/05/20 02:02:39;;;;;;;3.42;1.77;;;;;;;;;;2097202;28;20062;-46
2022/05/20 02:03:43;;;;;;;4.70;1.98;;;;;;;;;;2097238;28;20481;-47
2022/05/20 02:04:46;;;;;;;3.22;1.42;;;;;;;;;;2104753;28;20127;-46
2022/05/20 02:05:49;;;;;;;4.65;2.03;;;;;;;;;;2105736;28;20058;-46
2022/05/20 02:06:53;;;;;;;4.22;1.85;;;;;;;;;;2105562;28;20043;-47
2022/05/20 02:07:56;;;;;;;2.72;1.90;;;;;;;;;;2105716;28;20056;-46
2022/05/20 02:08:58;;;;;;;3.15;1.80;;;;;;;;;;2105637;28;20116;-59
2022/05/20 02:09:59;;;;;;;;;;;;;;;;;;2106124;28;20040;-59
2022/05/20 02:11:02;;;;;;;3.83;2.40;;;;;;;;;;2105519;28;20373;-59
2022/05/20 02:12:04;;;;;;;4.03;2.33;;;;;;;;;;2105483;28;20420;-59
2022/05/20 02:13:08;;;;;;;4.28;2.33;;;;;;;;;;2105689;28;20076;-59
2022/05/20 02:14:11;;;;;;;2.92;1.90;;;;;;;;;;2105783;28;20123;-47
2022/05/20 02:15:14;;;;;;;5.97;2.80;;;;;;;;;;2105650;28;20138;-47
2022/05/20 02:16:17;;;;;;;3.72;2.10;;;;;;;;;;2105410;28;20038;-47
2022/05/20 02:17:24;;;;;;;4.88;2.42;;;;;;;;;;2105720;28;20091;-47
2022/05/20 02:18:27;;;;;;;4.47;2.25;;;;;;;;;;2105273;28;20135;-47
2022/05/20 02:19:31;;;;;;;5.40;2.25;;;;;;;;;;2105525;28;20134;-47
2022/05/20 02:20:34;;;;;;;3.60;1.88;;;;;;;;;;2105760;28;20130;-47
2022/05/20 02:21:37;;;;;;;4.93;2.33;;;;;;;;;;2105592;28;20135;-47
2022/05/20 02:22:40;;;;;;;5.95;2.17;;;;;;;;;;2102351;28;20052;-47
2022/05/20 02:23:44;;;;;;;3.90;2.42;;;;;;;;;;2097124;28;20485;-47
2022/05/20 02:24:46;;;;;;;3.75;2.03;;;;;;;;;;2096989;28;20076;-47
2022/05/20 02:25:47;;;;;;;;;;;;;;;;;;2097874;28;20197;-47
2022/05/20 02:26:51;;;;;;;2.88;2.30;;;;;;;;;;2097057;28;19920;-48
2022/05/20 02:27:55;;;;;;;3.08;2.00;;;;;;;;;;2103202;28;20408;-48
2022/05/20 02:28:58;;;;;;;4.10;2.33;;;;;;;;;;2105484;28;20047;-47
2022/05/20 02:30:02;;;;;;;4.43;2.33;;;;;;;;;;2105642;28;20123;-48
2022/05/20 02:31:05;;;;;;;4.05;2.40;;;;;;;;;;2099219;28;20123;-47
2022/05/20 02:32:08;;;;;;;3.35;1.80;;;;;;;;;;2097061;28;20061;-47
2022/05/20 02:33:11;;;;;;;4.10;2.35;;;;;;;;;;2096934;28;20063;-46
2022/05/20 02:34:12;;;;;;;3.20;2.00;;;;;;;;;;2096956;28;20040;-48
2022/05/20 02:35:13;;;;;;;4.33;2.17;;;;;;;;;;2097212;28;20072;-47
2022/05/20 02:36:17;;;;;;;4.82;2.20;;;;;;;;;;2097109;28;20281;-49
2022/05/20 02:37:20;;;;;;;3.65;2.13;;;;;;;;;;2097010;28;20076;-47
2022/05/20 02:38:22;;;;;;;5.65;2.30;;;;;;;;;;2097046;28;20438;-47
2022/05/20 02:39:23;;;;;;;3.40;2.08;;;;;;;;;;2097005;28;20452;-47
2022/05/20 02:40:24;;;;;;;4.77;1.83;;;;;;;;;;2097187;28;20049;-46
2022/05/20 02:41:25;;;;;;;4.53;2.17;;;;;;;;;;2098570;28;20090;-47
2022/05/20 02:42:28;;;;;;;3.40;2.03;;;;;;;;;;2105112;28;20523;-47
2022/05/20 02:43:29;;;;;;;3.80;2.17;;;;;;;;;;2105250;28;20311;-48
2022/05/20 02:44:30;;;;;;;4.97;2.10;;;;;;;;;;2105811;28;20075;-47
2022/05/20 02:45:31;;;;;;;3.92;2.08;;;;;;;;;;2103725;28;20485;-47
2022/05/20 02:46:32;;;;;;;3.77;1.87;;;;;;;;;;2098558;28;20048;-47
2022/05/20 02:47:33;;;;;;;3.42;1.83;;;;;;;;;;2098496;28;20052;-46
2022/05/20 02:48:36;;;;;;;4.63;2.40;;;;;;;;;;2098531;28;20048;-47
2022/05/20 02:49:37;;;;;;;3.10;1.90;;;;;;;;;;2098467;28;20679;-48
2022/05/20 02:50:38;;;;;;;4.90;1.98;;;;;;;;;;2098584;28;20048;-47
2022/05/20 02:51:39;;;;;;;3.38;1.98;;;;;;;;;;2098548;28;20086;-47
2022/05/20 02:52:40;;;;;;;3.87;2.30;;;;;;;;;;2098582;28;20434;-48
2022/05/20 02:53:41;;;;;;;6.38;1.77;;;;;;;;;;2098273;28;20401;-47
2022/05/20 02:54:42;;;;;;;5.63;2.70;;;;;;;;;;2098654;28;20044;-47
2022/05/20 02:55:44;;;;;;;3.08;1.98;;;;;;;;;;2098437;28;20497;-48
2022/05/20 02:56:44;;;;;;;4.53;2.50;;;;;;;;;;2098394;28;20049;-47
2022/05/20 02:57:46;;;;;;;3.63;2.20;;;;;;;;;;2098723;28;20131;-46
2022/05/20 03:04:12;;;;;;;7.78;4.25;;;;;;;;;;2098339;28;20045;-47
2022/05/20 03:05:13;;;;;;;4.90;3.63;;;;;;;;;;2098541;28;20127;-47
2022/05/20 03:06:14;;;;;;;4.53;2.60;;;;;;;;;;2098484;28;20177;-49
2022/05/20 03:07:15;;;;;;;5.18;3.17;;;;;;;;;;2098394;28;20289;-46
2022/05/20 03:08:16;;;;;;;5.40;3.20;;;;;;;;;;2098502;28;20041;-47
2022/05/20 03:09:17;;;;;;;6.53;3.22;;;;;;;;;;2098429;28;20108;-47
2022/05/20 03:10:19;;;;;;;3.80;2.50;;;;;;;;;;2098296;28;20048;-47
2022/05/20 03:11:20;;;;;;;5.15;3.08;;;;;;;;;;2098779;28;20414;-47
2022/05/20 03:12:21;;;;;;;4.45;2.20;;;;;;;;;;2098318;28;20190;-47
2022/05/20 03:13:23;;;;;;;4.80;3.05;;;;;;;;;;2098283;28;20052;-46
2022/05/20 03:14:24;;;;;;;4.60;1.98;;;;;;;;;;2097909;28;20060;-47
2022/05/20 03:15:25;;;;;;;7.90;2.42;;;;;;;;;;2098210;28;20090;-59
2022/05/20 03:16:26;;;;;;;5.63;2.63;;;;;;;;;;2097843;28;20175;-59
2022/05/20 03:17:28;;;;;;;4.13;2.53;;;;;;;;;;2098401;28;20401;-59
2022/05/20 03:18:29;;;;;;;5.60;2.97;;;;;;;;;;2099267;28;20075;-59
2022/05/20 03:19:31;;;;;;;5.25;3.13;;;;;;;;;;2098838;28;20051;-58
2022/05/20 03:20:32;;;;;;;4.68;2.83;;;;;;;;;;2098507;28;20079;-59
2022/05/20 03:21:33;;;;;;;4.95;3.47;;;;;;;;;;2097937;28;20259;-59
2022/05/20 03:22:35;;;;;;;3.88;3.13;;;;;;;;;;2098308;28;20053;-58
2022/05/20 03:23:36;;;;;;;7.68;2.70;;;;;;;;;;2100090;28;20053;-59
2022/05/20 03:24:37;;;;;;;3.88;2.03;;;;;;;;;;2106829;28;20492;-59
2022/05/20 03:25:39;;;;;;;3.38;2.20;;;;;;;;;;2106671;28;20409;-58
2022/05/20 03:26:45;;;;;;;3.63;2.10;;;;;;;;;;2106470;28;20089;-59
2022/05/20 03:27:46;;;;;;;;;;;;;;;;;;2106741;28;20481;-59
2022/05/20 03:28:48;;;;;;;4.50;2.30;;;;;;;;;;2106296;28;20046;-58
2022/05/20 03:29:49;;;;;;;3.10;1.70;;;;;;;;;;2103511;28;20485;-59
2022/05/20 03:30:50;;;;;;;4.03;1.92;;;;;;;;;;2098141;28;20044;-59
2022/05/20 03:31:51;;;;;;;5.43;2.40;;;;;;;;;;2098324;28;20051;-59
2022/05/20 03:32:52;;;;;;;3.38;2.00;;;;;;;;;;2098278;28;20044;-59
2022/05/20 03:33:54;;;;;;;4.07;2.03;;;;;;;;;;2098366;28;20501;-59
2022/05/20 03:34:56;;;;;;;3.47;2.13;;;;;;;;;;2098203;28;20127;-59
2022/05/20 03:35:58;;;;;;;4.55;2.50;;;;;;;;;;2098339;28;20059;-59
2022/05/20 03:36:59;;;;;;;4.47;2.53;;;;;;;;;;2098319;28;20045;-59
2022/05/20 03:38:00;;;;;;;3.47;2.33;;;;;;;;;;2102545;28;20048;-59
2022/05/20 03:39:01;;;;;;;4.97;2.40;;;;;;;;;;2106530;28;20059;-59
2022/05/20 03:40:03;;;;;;;9.30;3.60;;;;;;;;;;2106590;28;20570;-58
2022/05/20 03:41:04;;;;;;;4.50;2.85;;;;;;;;;;2106820;28;20060;-59
2022/05/20 03:42:05;;;;;;;4.78;2.80;;;;;;;;;;2106547;28;20609;-59
2022/05/20 03:43:07;;;;;;;5.70;2.83;;;;;;;;;;2106644;28;20405;-59
2022/05/20 03:44:09;;;;;;;6.78;2.92;;;;;;;;;;2106682;28;20128;-59
2022/05/20 03:45:11;;;;;;;5.80;3.08;;;;;;;;;;2106486;28;20585;-59
2022/05/20 03:46:12;;;;;;;6.30;2.70;;;;;;;;;;2106069;28;20040;-59
2022/05/20 03:47:13;;;;;;;4.60;2.63;;;;;;;;;;2106776;28;20121;-59
2022/05/20 03:48:14;;;;;;;5.57;2.80;;;;;;;;;;2106783;28;20050;-59
2022/05/20 03:49:22;;;;;;;4.60;2.75;;;;;;;;;;2106511;28;20116;-59
2022/05/20 03:50:23;;;;;;;4.68;2.67;;;;;;;;;;2106498;28;20048;-59
2022/05/20 03:51:24;;;;;;;4.15;2.17;;;;;;;;;;2106723;28;20177;-59
2022/05/20 03:52:25;;;;;;;5.55;2.70;;;;;;;;;;2106502;28;20044;-59
2022/05/20 03:53:26;;;;;;;7.40;2.37;;;;;;;;;;2106521;28;20044;-58
2022/05/20 03:54:31;;;;;;;3.88;2.25;;;;;;;;;;2106432;28;20515;-59
2022/05/20 03:55:32;;;;;;;5.30;2.60;;;;;;;;;;2106009;28;20495;-59
2022/05/20 03:56:33;;;;;;;5.40;2.35;;;;;;;;;;2106683;28;20044;-59
2022/05/20 03:57:35;;;;;;;4.87;2.20;;;;;;;;;;2106566;28;20086;-59
2022/05/20 03:58:36;;;;;;;;;;;;;;;;;;2107245;28;20048;-47
2022/05/20 03:59:38;;;;;;;5.30;2.45;;;;;;;;;;2106448;28;19920;-46
2022/05/20 04:01:57;;;;;;;4.18;2.42;;;;;;;;;;2106447;28;20440;-47
2022/05/20 04:03:00;;;;;;;5.03;2.60;;;;;;;;;;2106606;28;20122;-46
2022/05/20 04:04:02;;;;;;;6.93;2.90;;;;;;;;;;2106390;28;20043;-48
2022/05/20 04:05:03;;;;;;;3.65;2.30;;;;;;;;;;2106677;28;20140;-46
2022/05/20 04:06:05;;;;;;;4.40;2.70;;;;;;;;;;2106435;28;20623;-46
2022/05/20 04:07:07;;;;;;;4.28;2.83;;;;;;;;;;2106467;28;20412;-47
2022/05/20 04:08:09;;;;;;;6.07;2.67;;;;;;;;;;2106509;28;20130;-47
2022/05/20 04:09:10;;;;;;;6.68;2.92;;;;;;;;;;2106463;28;20115;-47
2022/05/20 04:10:11;;;;;;;5.05;2.50;;;;;;;;;;2106506;28;20055;-47
2022/05/20 04:11:12;;;;;;;5.15;2.67;;;;;;;;;;2106437;28;20525;-46
2022/05/20 04:12:17;;;;;;;3.67;2.38;;;;;;;;;;2106450;28;20075;-47
2022/05/20 04:13:18;;;;;;;5.10;2.67;;;;;;;;;;2106353;28;20050;-47
2022/05/20 04:14:19;;;;;;;3.43;1.90;;;;;;;;;;2106368;28;20466;-47
2022/05/20 04:15:20;;;;;;;4.30;2.53;;;;;;;;;;2106635;28;20056;-47
2022/05/20 04:16:22;;;;;;;3.55;2.45;;;;;;;;;;2106626;28;20481;-59
2022/05/20 04:17:23;;;;;;;6.15;2.42;;;;;;;;;;2106399;28;20044;-59
2022/05/20 04:18:24;;;;;;;4.40;2.15;;;;;;;;;;2106043;28;20143;-59
2022/05/20 04:19:26;;;;;;;3.55;2.25;;;;;;;;;;2098139;28;20182;-46
2022/05/20 04:20:28;;;;;;;5.18;2.45;;;;;;;;;;2101036;28;20177;-48
2022/05/20 04:21:29;;;;;;;7.35;3.00;;;;;;;;;;2106435;28;20048;-47
2022/05/20 04:22:37;;;;;;;4.10;2.78;;;;;;;;;;2105998;28;20044;-59
2022/05/20 04:23:38;;;;;;;;;;;;;;;;;;2106844;28;20131;-59
2022/05/20 04:24:39;;;;;;;7.75;3.10;;;;;;;;;;2106528;28;19947;-59
2022/05/20 04:25:40;;;;;;;5.25;2.60;;;;;;;;;;2106682;28;20131;-59
2022/05/20 04:26:41;;;;;;;4.83;2.90;;;;;;;;;;2106285;28;20044;-59
2022/05/20 04:27:42;;;;;;;5.95;3.03;;;;;;;;;;2106439;28;20131;-59
2022/05/20 04:28:44;;;;;;;5.57;2.97;;;;;;;;;;2106271;28;20098;-59
2022/05/20 04:29:45;;;;;;;5.80;2.83;;;;;;;;;;2106237;28;20404;-59
2022/05/20 04:30:47;;;;;;;4.17;2.87;;;;;;;;;;2105619;28;20070;-58
2022/05/20 04:31:47;;;;;;;;;;;;;;;;;;2106831;28;20351;-59
2022/05/20 04:32:49;;;;;;;4.80;2.72;;;;;;;;;;2106301;28;20010;-59
2022/05/20 04:33:49;;;;;;;5.28;2.92;;;;;;;;;;2106172;28;20058;-59
2022/05/20 04:34:51;;;;;;;5.68;3.25;;;;;;;;;;2106223;28;20093;-59
2022/05/20 04:35:58;;;;;;;3.53;2.45;;;;;;;;;;2105707;28;20089;-59
2022/05/20 04:36:59;;;;;;;7.38;3.05;;;;;;;;;;2106372;28;20075;-59
2022/05/20 04:38:00;;;;;;;5.20;3.22;;;;;;;;;;2106032;28;20075;-59
2022/05/20 04:39:02;;;;;;;6.73;3.17;;;;;;;;;;2106140;28;20051;-59
2022/05/20 04:40:03;;;;;;;6.05;2.88;;;;;;;;;;2106183;28;20123;-59
2022/05/20 04:47:43;;;;;;;7.00;2.92;;;;;;;;;;2106129;28;20412;-59
2022/05/20 04:48:44;;;;;;;5.35;2.85;;;;;;;;;;2106249;28;20126;-59
2022/05/20 04:49:45;;;;;;;5.67;2.87;;;;;;;;;;2106120;28;20056;-46
2022/05/20 04:50:46;;;;;;;5.70;2.80;;;;;;;;;;2105601;28;20123;-47
2022/05/20 04:51:47;;;;;;;4.75;2.65;;;;;;;;;;2106128;28;20119;-47
2022/05/20 04:52:48;;;;;;;6.38;2.95;;;;;;;;;;2106176;28;20052;-47
2022/05/20 04:55:09;;;;;;;5.93;2.90;;;;;;;;;;2106172;28;20127;-47
2022/05/20 04:56:10;;;;;;;5.60;2.92;;;;;;;;;;2105582;28;20401;-47
2022/05/20 04:57:17;;;;;;;5.53;2.45;;;;;;;;;;2106272;28;20123;-47
2022/05/20 04:58:19;;;;;;;4.13;2.65;;;;;;;;;;2106102;28;20044;-47
2022/05/20 04:59:20;;;;;;;7.93;3.10;;;;;;;;;;2106019;28;20485;-47
2022/05/20 05:00:23;;;;;;;6.20;3.13;;;;;;;;;;2106311;28;20560;-59
2022/05/20 05:01:24;;;;;;;8.77;2.85;;;;;;;;;;2106173;28;20127;-59
2022/05/20 05:02:26;;;;;;;6.65;2.90;;;;;;;;;;2106156;28;20040;-59
2022/05/20 05:03:27;;;;;;;6.72;3.08;;;;;;;;;;2106199;28;20113;-59
2022/05/20 05:04:28;;;;;;;7.10;2.80;;;;;;;;;;2106003;28;20467;-59
2022/05/20 05:05:29;;;;;;;5.03;2.45;;;;;;;;;;2106291;28;20368;-59
2022/05/20 05:06:30;;;;;;;7.18;2.75;;;;;;;;;;2105718;28;20080;-59
2022/05/20 05:07:32;;;;;;;6.80;3.07;;;;;;;;;;2105484;28;20565;-59
2022/05/20 05:08:34;;;;;;;6.63;2.78;;;;;;;;;;2106054;28;20289;-59
2022/05/20 05:09:35;;;;;;;5.07;2.70;;;;;;;;;;2106079;28;20441;-59
2022/05/20 05:10:36;;;;;;;6.47;3.20;;;;;;;;;;2106035;28;20510;-59
2022/05/20 05:11:39;;;;;;;4.60;2.78;;;;;;;;;;2106013;28;20089;-59
2022/05/20 05:12:40;;;;;;;5.13;2.70;;;;;;;;;;2106064;28;20131;-59
2022/05/20 05:13:41;;;;;;;4.82;2.78;;;;;;;;;;2105922;28;20560;-59
2022/05/20 05:14:44;;;;;;;7.33;3.50;;;;;;;;;;2106088;28;20052;-59
2022/05/20 05:15:45;;;;;;;5.53;3.00;;;;;;;;;;2106066;28;20066;-59
2022/05/20 05:16:47;;;;;;;5.97;3.13;;;;;;;;;;2105986;28;20052;-59
2022/05/20 05:19:08;;;;;;;6.93;3.20;;;;;;;;;;2099387;28;20048;-59
2022/05/20 05:20:10;;;;;;;5.00;2.88;;;;;;;;;;2097602;28;20051;-59
2022/05/20 05:21:13;;;;;;;10.40;3.03;;;;;;;;;;2097738;28;20119;-59
2022/05/20 05:22:14;;;;;;;4.95;2.95;;;;;;;;;;2097637;28;20127;-59
2022/05/20 05:23:16;;;;;;;6.45;3.33;;;;;;;;;;2097568;28;20068;-59
2022/05/20 05:24:17;;;;;;;5.47;3.35;;;;;;;;;;2097561;28;20074;-59
2022/05/20 05:25:19;;;;;;;5.43;2.78;;;;;;;;;;2097571;28;20127;-59
2022/05/20 05:26:20;;;;;;;5.60;2.97;;;;;;;;;;2097819;28;20048;-59
2022/05/20 05:27:21;;;;;;;7.23;3.30;;;;;;;;;;2097560;28;20049;-59
2022/05/20 05:28:22;;;;;;;6.35;2.83;;;;;;;;;;2097630;28;20131;-59
2022/05/20 05:29:23;;;;;;;7.28;3.00;;;;;;;;;;2097525;28;20055;-59
2022/05/20 05:30:25;;;;;;;6.67;3.13;;;;;;;;;;2101319;28;20044;-59
2022/05/20 05:31:26;;;;;;;3.95;2.92;;;;;;;;;;2105932;28;20097;-59
2022/05/20 05:32:28;;;;;;;4.75;2.90;;;;;;;;;;2105988;28;20044;-59
2022/05/20 05:33:29;;;;;;;;;;;;;;;;;;2106471;28;20048;-59
2022/05/20 05:34:30;;;;;;;6.60;2.72;;;;;;;;;;2105771;28;19989;-59
2022/05/20 05:35:32;;;;;;;4.88;2.88;;;;;;;;;;2106042;28;20052;-59
2022/05/20 05:36:33;;;;;;;5.45;2.92;;;;;;;;;;2105901;28;20044;-59
2022/05/20 05:37:34;;;;;;;6.07;2.63;;;;;;;;;;2106006;28;20074;-59
2022/05/20 05:38:35;;;;;;;6.10;3.17;;;;;;;;;;2105755;28;20412;-59
2022/05/20 05:39:37;;;;;;;8.27;3.10;;;;;;;;;;2105959;28;20044;-59
2022/05/20 05:40:38;;;;;;;;;;;;;;;;;;2106261;28;20482;-59
2022/05/20 05:41:40;;;;;;;5.13;2.75;;;;;;;;;;2105993;28;19985;-59
2022/05/20 05:42:41;;;;;;;9.52;3.45;;;;;;;;;;2105284;28;20048;-59
2022/05/20 05:43:42;;;;;;;6.78;3.63;;;;;;;;;;2105927;28;20044;-59
2022/05/20 05:44:43;;;;;;;9.18;3.88;;;;;;;;;;2105978;28;20516;-59
2022/05/20 05:45:44;;;;;;;7.13;3.58;;;;;;;;;;2105912;28;20130;-59
2022/05/20 05:46:45;;;;;;;7.00;3.37;;;;;;;;;;2105960;28;20074;-59
2022/05/20 05:47:50;;;;;;;8.27;3.92;;;;;;;;;;2105983;28;20043;-59
2022/05/20 05:48:51;;;;;;;5.95;3.50;;;;;;;;;;2105685;28;20489;-59
2022/05/20 05:49:56;;;;;;;8.57;4.45;;;;;;;;;;2105949;28;20123;-59
2022/05/20 05:50:58;;;;;;;8.60;4.43;;;;;;;;;;2105842;28;20633;-59
2022/05/20 05:52:00;;;;;;;8.25;4.20;;;;;;;;;;2105750;28;20044;-59
2022/05/20 05:53:06;;;;;;;10.43;5.03;;;;;;;;;;2106063;28;20089;-59
2022/05/20 05:54:07;;;;;;;9.93;4.32;;;;;;;;;;2105853;28;20413;-59
2022/05/20 05:55:09;;;;;;;12.75;4.55;;;;;;;;;;2105799;28;20119;-59
2022/05/20 05:56:10;;;;;;;9.77;4.75;;;;;;;;;;2105709;28;20183;-59
2022/05/20 05:57:11;;;;;;;10.70;4.63;;;;;;;;;;2105862;28;20104;-59
2022/05/20 05:58:13;;;;;;;7.23;3.87;;;;;;;;;;2105627;28;20083;-59
2022/05/20 05:59:15;;;;;;;11.52;4.63;;;;;;;;;;2105682;28;20139;-59
2022/05/20 06:00:17;;;;;;;9.13;5.15;;;;;;;;;;2105747;28;20044;-60
2022/05/20 06:01:18;;;;;;;10.45;5.15;;;;;;;;;;2105606;28;20123;-59
2022/05/20 06:02:21;;;;;;;10.38;5.00;;;;;;;;;;2105677;28;20496;-59
2022/05/20 06:03:23;;;;;;;11.32;4.97;;;;;;;;;;2105574;28;20040;-59
2022/05/20 06:04:24;;;;;;;16.13;5.75;;;;;;;;;;2105812;28;20101;-59
2022/05/20 06:05:37;;;;;;;10.82;5.05;;;;;;;;;;2105782;28;20040;-59
2022/05/20 06:06:38;;;;;;;9.55;4.70;;;;;;;;;;2105837;28;20048;-59
2022/05/20 06:07:39;;;;;;;11.38;5.38;;;;;;;;;;2105591;28;20525;-60
2022/05/20 06:08:40;;;;;;;10.20;4.93;;;;;;;;;;2105605;28;20044;-59
2022/05/20 06:09:41;;;;;;;12.38;6.03;;;;;;;;;;2105747;28;20052;-59
2022/05/20 06:10:42;;;;;;;12.23;5.70;;;;;;;;;;2105844;28;20104;-59
2022/05/20 06:11:43;;;;;;;11.98;4.97;;;;;;;;;;2105763;28;20044;-60
2022/05/20 06:12:44;;;;;;;13.00;5.20;;;;;;;;;;2105548;28;20527;-59
2022/05/20 06:13:46;;;;;;;12.68;5.30;;;;;;;;;;2105620;28;20080;-59
2022/05/20 06:14:47;;;;;;;12.00;4.97;;;;;;;;;;2105373;28;20123;-59
2022/05/20 06:15:48;;;;;;;9.82;5.38;;;;;;;;;;2105637;28;20138;-59
2022/05/20 06:16:50;;;;;;;8.55;4.60;;;;;;;;;;2105561;28;20040;-59
2022/05/20 06:17:51;;;;;;;10.00;4.95;;;;;;;;;;2105469;28;20105;-59
2022/05/20 06:18:52;;;;;;;10.63;5.63;;;;;;;;;;2105335;28;20104;-59
2022/05/20 06:19:53;;;;;;;;;;;;;;;;;;2106224;28;20048;-59
2022/05/20 06:20:55;;;;;;;14.93;5.20;;;;;;;;;;2105541;28;20020;-59
2022/05/20 06:21:56;;;;;;;8.48;4.95;;;;;;;;;;2105617;28;20060;-59
2022/05/20 06:23:01;;;;;;;8.38;5.53;;;;;;;;;;2105536;28;20525;-60
2022/05/20 06:24:02;;;;;;;10.50;4.95;;;;;;;;;;2105639;28;20139;-59
2022/05/20 06:25:04;;;;;;;8.80;5.18;;;;;;;;;;2105586;28;20143;-59
2022/05/20 06:26:05;;;;;;;;;;;;;;;;;;2106320;28;20127;-47
2022/05/20 06:27:17;;;;;;;10.85;5.20;;;;;;;;;;2105670;28;19920;-46
2022/05/20 06:28:19;;;;;;;10.85;5.47;;;;;;;;;;2105534;28;20122;-46
2022/05/20 06:29:20;;;;;;;10.65;5.40;;;;;;;;;;2105488;28;20526;-48